Gooch Mill, Missouri
Current Conditions -  °F | °C
As of 6:15 AM on Monday 24 Nov 2014 (Local Time) from KVER Reporting Station
Overcast Overcast  
Wind Chill: -2°   Ceiling: 3100
Heat Index:   Visibility: 10mi
Dew Point: -3°   Wind: 10mph
Humidity: 71%   Direction: 270°W
Pressure: 29.57"   Gusts: 20mph
Location:  38.8814°N, 92.7602°W
Report Text: KVER 241215Z AUTO 27009G17KT 10SM OVC031 02/M03 A2957 RMK AO2 T00191029
Loading
Personal Weather Stations






























Interactive Weather Map New forecast layout! Learn more

10-Day Weather Forecast

Advertisements
Track Severe Weather on mobile